Accueil
METAR-TAF:

METAR-TAF

Aéroports :

Station RAF de Northolt

Northolt, Angleterre

latitude: 51-33N, longitude: 000-25W, altitude: 38 m

Observation

Le bulletin a été fait il y a 25 minutes, à 17:50 UTC
Vent 9 kt de nord/nord-ouest
Température 11°C
Humidité 50%
Pression 1028 hPa
Visibilité 10 km ou plus
pas de nuages en-dessous de 1500 mètres et pas de cumulonimbus.

METAR: EGWU 241750Z 33009KT CAVOK 11/01 Q1028 NOSIG

Heure: 18:15 (18:15 UTC)

Prévision

Le bulletin a été fait il y a 1 heure et 34 minutes, à 16:41 UTC
Prévision valable du 24 à 18 UTC au 25 à 12 UTC
Vent 8 kt de ouest/nord-ouest
Visibilité 10 km ou plus
Quelques nuages à une hauteur de 3500 ft
Evoluant progressivement
du 25 à 07 UTC au 25 à 10 UTC
Vent 15 kt de nord/nord-ouest

TAF: EGWU 241641Z 2418/2512 29008KT 9999 FEW035 BECMG 2507/2510 34015KT

Observations et prévisions météorologiques de plus de 4000 aéroports (messages METAR et TAF).

Les stations disponibles sont représentées par des disques jaunes et rouges sur la carte.

Passer la souris dessus pour voir le nom de la station.

Cliquer dessus pour voir les observations et prévisions météorologiques.

Pour changer de carte: cliquez sur les boutons verts avec une croix noire pour zoomer, sur le bouton vert avec un tiret pour effectuer un zoom arrière, ou sur les flèches vertes pour les cartes adjacentes.


METAR-TAF: